createdAt,value
2023-01-11T00:00:11.845Z,0.00
2023-01-11T00:01:11.952Z,0.00
2023-01-11T00:02:12.090Z,0.00
2023-01-11T00:03:12.159Z,0.00
2023-01-11T00:04:12.285Z,0.00
2023-01-11T00:05:12.374Z,0.00
2023-01-11T00:06:12.484Z,0.00
2023-01-11T00:07:12.566Z,0.00
2023-01-11T00:08:12.676Z,0.00
2023-01-11T00:09:12.791Z,0.00
2023-01-11T00:10:12.922Z,0.00
2023-01-11T00:11:13.048Z,0.00
2023-01-11T00:12:13.140Z,0.00
2023-01-11T00:13:13.231Z,0.00
2023-01-11T00:14:13.341Z,0.00
2023-01-11T00:15:13.515Z,0.00
2023-01-11T00:16:13.615Z,0.00
2023-01-11T00:17:13.732Z,0.00
2023-01-11T00:18:13.941Z,0.00
2023-01-11T00:19:13.936Z,0.00
2023-01-11T00:20:14.221Z,0.00
2023-01-11T00:21:14.146Z,0.00
2023-01-11T00:22:14.246Z,0.00
2023-01-11T00:23:14.371Z,0.00
2023-01-11T00:24:14.567Z,0.00
2023-01-11T00:25:14.695Z,0.00
2023-01-11T00:26:14.709Z,0.00
2023-01-11T00:27:14.877Z,0.00
2023-01-11T00:28:14.968Z,0.00
2023-01-11T00:29:15.065Z,0.00
2023-01-11T00:30:15.224Z,0.00
2023-01-11T00:31:15.299Z,0.00
2023-01-11T00:32:15.353Z,0.00
2023-01-11T00:33:15.468Z,0.00
2023-01-11T00:34:15.592Z,0.00
2023-01-11T00:35:15.815Z,0.00
2023-01-11T00:36:15.798Z,0.00
2023-01-11T00:37:15.930Z,0.00
2023-01-11T00:38:16.047Z,0.00
2023-01-11T00:39:16.171Z,0.00
2023-01-11T00:40:16.306Z,0.00
2023-01-11T00:41:16.396Z,0.00
2023-01-11T00:42:16.489Z,0.00
2023-01-11T00:43:16.608Z,0.00
2023-01-11T00:44:16.706Z,0.00
2023-01-11T00:45:16.834Z,0.00
2023-01-11T00:46:16.995Z,0.00
2023-01-11T00:47:17.112Z,0.00
2023-01-11T00:48:17.235Z,0.00
2023-01-11T00:49:17.362Z,0.00
2023-01-11T00:50:17.661Z,0.00
2023-01-11T00:51:17.681Z,0.00
2023-01-11T00:52:17.812Z,0.00
2023-01-11T00:53:17.891Z,0.00
2023-01-11T00:54:18.068Z,0.00
2023-01-11T00:55:18.262Z,0.00
2023-01-11T00:56:18.293Z,0.00
2023-01-11T00:57:18.419Z,0.00
2023-01-11T00:58:18.562Z,0.00
2023-01-11T00:59:18.772Z,0.00
2023-01-11T01:00:18.864Z,0.00
2023-01-11T01:01:18.990Z,0.00
2023-01-11T01:02:19.090Z,0.00
2023-01-11T01:03:19.193Z,0.00
2023-01-11T01:04:19.476Z,0.00
2023-01-11T01:05:19.459Z,0.00
2023-01-11T01:06:19.581Z,0.00
2023-01-11T01:07:19.661Z,0.00
2023-01-11T01:08:19.782Z,0.00
2023-01-11T01:09:19.939Z,0.00
2023-01-11T01:10:20.086Z,0.00
2023-01-11T01:11:20.159Z,0.00
2023-01-11T01:12:20.307Z,0.00
2023-01-11T01:13:20.455Z,0.00
2023-01-11T01:14:20.588Z,0.00
2023-01-11T01:15:20.734Z,0.00
2023-01-11T01:16:20.833Z,0.00
2023-01-11T01:17:20.916Z,0.00
2023-01-11T01:18:20.998Z,0.00
2023-01-11T01:19:21.173Z,0.00
2023-01-11T01:20:21.401Z,0.00
2023-01-11T01:21:21.357Z,0.00
2023-01-11T01:22:21.487Z,0.00
2023-01-11T01:23:21.621Z,0.00
2023-01-11T01:24:21.763Z,0.00
2023-01-11T01:25:21.969Z,0.00
2023-01-11T01:26:22.047Z,0.00
2023-01-11T01:27:22.195Z,0.00
2023-01-11T01:28:22.428Z,0.00
2023-01-11T01:29:22.431Z,0.00
2023-01-11T01:30:22.607Z,0.00
2023-01-11T01:31:22.672Z,0.00
2023-01-11T01:32:22.793Z,0.00
2023-01-11T01:33:22.940Z,0.00
2023-01-11T01:34:23.060Z,0.00
2023-01-11T01:35:23.355Z,0.00
2023-01-11T01:36:23.388Z,0.00
2023-01-11T01:37:23.445Z,0.00
2023-01-11T01:38:23.572Z,0.00
2023-01-11T01:39:23.707Z,0.00
2023-01-11T01:40:23.913Z,0.00
2023-01-11T01:41:24.004Z,0.00
2023-01-11T01:42:24.170Z,0.00
2023-01-11T01:43:24.240Z,0.00
2023-01-11T01:44:24.370Z,0.00
2023-01-11T01:45:24.528Z,0.00
2023-01-11T01:46:24.644Z,0.00
2023-01-11T01:47:24.748Z,0.00
2023-01-11T01:48:24.847Z,0.00
2023-01-11T01:49:24.991Z,0.00
2023-01-11T01:50:25.185Z,0.00
2023-01-11T01:51:25.360Z,0.00
2023-01-11T01:52:25.406Z,0.00
2023-01-11T01:53:25.528Z,0.00
2023-01-11T01:54:25.610Z,0.00
2023-01-11T01:55:25.846Z,0.00
2023-01-11T01:56:25.865Z,0.00
2023-01-11T01:57:25.996Z,0.00
2023-01-11T01:58:26.142Z,0.00
2023-01-11T01:59:26.303Z,0.00
2023-01-11T02:00:26.487Z,0.00
2023-01-11T02:01:26.584Z,0.00
2023-01-11T02:02:26.738Z,0.00
2023-01-11T02:03:26.830Z,0.00
2023-01-11T02:04:26.959Z,0.00
2023-01-11T02:05:27.115Z,0.00
2023-01-11T02:06:27.242Z,0.00
2023-01-11T02:07:27.360Z,0.00
2023-01-11T02:08:27.492Z,0.00
2023-01-11T02:09:27.615Z,0.00
2023-01-11T02:10:27.863Z,0.00
2023-01-11T02:11:27.904Z,0.00
2023-01-11T02:12:30.202Z,0.00
2023-01-11T02:13:28.134Z,0.00
2023-01-11T02:14:28.276Z,0.00
2023-01-11T02:15:28.554Z,0.00
2023-01-11T02:16:28.520Z,0.00
2023-01-11T02:17:28.633Z,0.00
2023-01-11T02:18:28.790Z,0.00
2023-01-11T02:19:28.910Z,0.00
2023-01-11T02:20:29.230Z,0.00
2023-01-11T02:21:29.219Z,0.00
2023-01-11T02:22:29.399Z,0.00
2023-01-11T02:23:29.434Z,0.00
2023-01-11T02:24:29.568Z,0.00
2023-01-11T02:25:29.983Z,0.00
2023-01-11T02:26:29.858Z,0.00
2023-01-11T02:27:30.070Z,0.00
2023-01-11T02:28:30.116Z,0.00
2023-01-11T02:29:30.255Z,0.00
2023-01-11T02:30:30.406Z,0.00
2023-01-11T02:31:30.566Z,0.00
2023-01-11T02:32:30.669Z,0.00
2023-01-11T02:33:30.768Z,0.00
2023-01-11T02:34:30.892Z,0.00
2023-01-11T02:35:31.049Z,0.00
2023-01-11T02:36:31.181Z,0.00
2023-01-11T02:37:31.249Z,0.00
2023-01-11T02:38:31.388Z,0.00
2023-01-11T02:39:31.572Z,0.00
2023-01-11T02:40:31.668Z,0.00
2023-01-11T02:41:31.806Z,0.00
2023-01-11T02:42:31.936Z,0.00
2023-01-11T02:43:32.037Z,0.00
2023-01-11T02:44:32.185Z,0.00
2023-01-11T02:45:32.336Z,0.00
2023-01-11T02:46:32.482Z,0.00
2023-01-11T02:47:32.559Z,0.00
2023-01-11T02:48:32.675Z,0.00
2023-01-11T02:49:32.807Z,0.00
2023-01-11T02:50:33.038Z,0.00
2023-01-11T02:51:33.044Z,0.00
2023-01-11T02:52:33.192Z,0.00
2023-01-11T02:53:33.355Z,0.00
2023-01-11T02:54:33.479Z,0.00
2023-01-11T02:55:33.619Z,0.00
2023-01-11T02:56:33.674Z,0.00
2023-01-11T02:57:33.842Z,0.00
2023-01-11T02:58:33.945Z,0.00
2023-01-11T02:59:34.112Z,0.00
2023-01-11T03:00:34.245Z,0.00
2023-01-11T03:01:34.431Z,0.00
2023-01-11T03:02:34.494Z,0.00
2023-01-11T03:03:34.564Z,0.00
2023-01-11T03:04:34.695Z,0.00
2023-01-11T03:05:34.860Z,0.00
2023-01-11T03:06:35.074Z,0.00
2023-01-11T03:07:35.083Z,0.00
2023-01-11T03:08:35.216Z,0.00
2023-01-11T03:09:35.375Z,0.00
2023-01-11T03:10:35.508Z,0.00
2023-01-11T03:11:35.579Z,0.00
2023-01-11T03:12:35.724Z,0.00
2023-01-11T03:13:35.840Z,0.00
2023-01-11T03:14:35.976Z,0.00
2023-01-11T03:15:36.235Z,0.00
2023-01-11T03:16:36.274Z,0.00
2023-01-11T03:17:36.395Z,0.00
2023-01-11T03:18:36.536Z,0.00
2023-01-11T03:19:36.710Z,0.00
2023-01-11T03:20:36.863Z,0.00
2023-01-11T03:21:36.901Z,0.00
2023-01-11T03:22:37.080Z,0.00
2023-01-11T03:23:37.179Z,0.00
2023-01-11T03:24:37.287Z,0.00
2023-01-11T03:25:37.478Z,0.00
2023-01-11T03:26:37.545Z,0.00
2023-01-11T03:27:37.675Z,0.00
2023-01-11T03:28:37.786Z,0.00
2023-01-11T03:29:37.904Z,0.00
2023-01-11T03:30:38.078Z,0.00
2023-01-11T03:31:38.248Z,0.00
2023-01-11T03:32:38.271Z,0.00
2023-01-11T03:33:38.415Z,0.00
2023-01-11T03:34:38.530Z,0.00
2023-01-11T03:35:38.718Z,0.00
2023-01-11T03:36:38.770Z,0.00
2023-01-11T03:37:39.009Z,0.00
2023-01-11T03:38:38.992Z,0.00
2023-01-11T03:39:39.115Z,0.00
2023-01-11T03:40:39.263Z,0.00
2023-01-11T03:41:39.322Z,0.00
2023-01-11T03:42:39.529Z,0.00
2023-01-11T03:43:39.521Z,0.00
2023-01-11T03:44:39.622Z,0.00
2023-01-11T03:45:39.865Z,0.00
2023-01-11T03:46:39.893Z,0.00
2023-01-11T03:47:39.973Z,0.00
2023-01-11T03:48:40.134Z,0.00
2023-01-11T03:49:40.183Z,0.00
2023-01-11T03:50:40.314Z,0.00
2023-01-11T03:51:40.385Z,0.00
2023-01-11T03:52:40.524Z,0.00
2023-01-11T03:53:40.608Z,0.00
2023-01-11T03:54:40.691Z,0.00
2023-01-11T03:55:40.798Z,0.00
2023-01-11T03:56:40.947Z,0.00
2023-01-11T03:57:41.012Z,0.00
2023-01-11T03:58:41.153Z,0.00
2023-01-11T03:59:41.248Z,0.00
2023-01-11T04:00:41.371Z,0.00
2023-01-11T04:01:41.534Z,0.00
2023-01-11T04:02:41.536Z,0.00
2023-01-11T04:03:41.699Z,0.00
2023-01-11T04:04:41.756Z,0.00
2023-01-11T04:05:41.863Z,0.00
2023-01-11T04:06:42.056Z,0.00
2023-01-11T04:07:42.073Z,0.00
2023-01-11T04:08:42.207Z,0.00
2023-01-11T04:09:42.297Z,0.00
2023-01-11T04:10:42.451Z,0.00
2023-01-11T04:11:42.627Z,0.00
2023-01-11T04:12:42.656Z,0.00
2023-01-11T04:13:42.764Z,0.00
2023-01-11T04:14:42.907Z,0.00
2023-01-11T04:15:42.983Z,0.00
2023-01-11T04:16:43.247Z,0.00
2023-01-11T04:17:43.248Z,0.00
2023-01-11T04:18:43.384Z,0.00
2023-01-11T04:19:43.515Z,0.00
2023-01-11T04:20:43.608Z,0.00
2023-01-11T04:21:43.775Z,0.00
2023-01-11T04:22:43.839Z,0.00
2023-01-11T04:23:43.949Z,0.00
2023-01-11T04:24:44.073Z,0.00
2023-01-11T04:25:44.150Z,0.00
2023-01-11T04:26:44.321Z,0.00
2023-01-11T04:27:44.409Z,0.00
2023-01-11T04:28:44.510Z,0.00
2023-01-11T04:29:44.641Z,0.00
2023-01-11T04:30:44.709Z,0.00
2023-01-11T04:31:44.967Z,0.00
2023-01-11T04:32:45.029Z,0.00
2023-01-11T04:33:45.050Z,0.00
2023-01-11T04:34:45.158Z,0.00
2023-01-11T04:35:45.299Z,0.00
2023-01-11T04:36:45.435Z,0.00
2023-01-11T04:37:45.460Z,0.00
2023-01-11T04:38:45.631Z,0.00
2023-01-11T04:39:45.729Z,0.00
2023-01-11T04:40:45.782Z,0.00
2023-01-11T04:41:45.966Z,0.00
2023-01-11T04:42:46.098Z,0.00
2023-01-11T04:43:46.112Z,0.00
2023-01-11T04:44:46.219Z,0.00
2023-01-11T04:45:46.374Z,0.00
2023-01-11T04:46:46.461Z,0.00
2023-01-11T04:47:46.514Z,0.00
2023-01-11T04:48:46.628Z,0.00
2023-01-11T04:49:46.776Z,0.00
2023-01-11T04:50:46.896Z,0.00
2023-01-11T04:51:46.946Z,0.00
2023-01-11T04:52:47.070Z,0.00
2023-01-11T04:53:47.198Z,0.00
2023-01-11T04:54:47.276Z,0.00
2023-01-11T04:55:47.402Z,0.00
2023-01-11T04:56:47.528Z,0.00
2023-01-11T04:57:47.769Z,0.00
2023-01-11T04:58:47.757Z,0.00
2023-01-11T04:59:47.869Z,0.00
2023-01-11T05:00:48.000Z,0.00
2023-01-11T05:01:48.088Z,0.00
2023-01-11T05:02:48.319Z,0.00
2023-01-11T05:03:48.325Z,0.00
2023-01-11T05:04:48.396Z,0.00
2023-01-11T05:05:48.518Z,0.00
2023-01-11T05:06:48.637Z,0.00
2023-01-11T05:07:48.750Z,0.00
2023-01-11T05:08:48.831Z,0.00
2023-01-11T05:09:48.935Z,0.00
2023-01-11T05:10:49.072Z,0.00
2023-01-11T05:11:49.256Z,0.00
2023-01-11T05:12:49.408Z,0.00
2023-01-11T05:13:49.493Z,0.00
2023-01-11T05:14:49.642Z,0.00
2023-01-11T05:15:49.750Z,0.00
2023-01-11T05:16:49.907Z,0.00
2023-01-11T05:17:49.968Z,0.00
2023-01-11T05:18:50.050Z,0.00
2023-01-11T05:19:50.210Z,0.00
2023-01-11T05:20:50.291Z,0.00
2023-01-11T05:21:50.458Z,0.00
2023-01-11T05:22:50.706Z,0.00
2023-01-11T05:23:50.686Z,0.00
2023-01-11T05:24:50.824Z,0.00
2023-01-11T05:25:50.939Z,0.00
2023-01-11T05:26:51.087Z,0.00
2023-01-11T05:27:51.247Z,0.00
2023-01-11T05:28:51.269Z,0.00
2023-01-11T05:29:51.414Z,0.00
2023-01-11T05:30:51.575Z,0.00
2023-01-11T05:31:51.775Z,0.00
2023-01-11T05:32:51.872Z,0.00
2023-01-11T05:33:51.987Z,0.00
2023-01-11T05:34:52.025Z,0.00
2023-01-11T05:35:54.413Z,0.00
2023-01-11T05:36:52.257Z,0.00
2023-01-11T05:37:52.406Z,0.00
2023-01-11T05:38:52.505Z,0.00
2023-01-11T05:39:52.687Z,0.00
2023-01-11T05:40:52.741Z,0.00
2023-01-11T05:41:52.848Z,0.00
2023-01-11T05:42:54.493Z,0.00
2023-01-11T05:43:53.081Z,0.00
2023-01-11T05:44:53.173Z,0.00
2023-01-11T05:45:53.434Z,0.00
2023-01-11T05:46:53.460Z,0.00
2023-01-11T05:47:53.572Z,0.00
2023-01-11T05:48:53.671Z,0.00
2023-01-11T05:49:53.803Z,0.00
2023-01-11T05:50:53.931Z,0.00
2023-01-11T05:51:54.008Z,0.00
2023-01-11T05:52:54.172Z,0.00
2023-01-11T05:53:54.280Z,0.00
2023-01-11T05:54:54.370Z,0.00
2023-01-11T05:55:54.607Z,0.00
2023-01-11T05:56:54.638Z,0.00
2023-01-11T05:57:54.799Z,0.00
2023-01-11T05:58:54.897Z,0.00
2023-01-11T05:59:55.049Z,0.00
2023-01-11T06:00:55.157Z,0.00
2023-01-11T06:01:55.357Z,0.00
2023-01-11T06:02:55.532Z,0.00
2023-01-11T06:03:55.507Z,0.00
2023-01-11T06:04:55.683Z,0.00
2023-01-11T06:05:55.782Z,0.00
2023-01-11T06:06:55.955Z,0.00
2023-01-11T06:07:55.988Z,0.00
2023-01-11T06:08:56.081Z,0.00
2023-01-11T06:09:56.236Z,0.00
2023-01-11T06:10:56.328Z,0.00
2023-01-11T06:11:56.486Z,0.00
2023-01-11T06:12:56.632Z,0.00
2023-01-11T06:13:56.679Z,0.00
2023-01-11T06:14:56.856Z,0.00
2023-01-11T06:15:56.947Z,0.00
2023-01-11T06:16:57.145Z,0.00
2023-01-11T06:17:57.185Z,0.00
2023-01-11T06:18:57.355Z,0.00
2023-01-11T06:19:57.517Z,0.00
2023-01-11T06:20:57.493Z,0.00
2023-01-11T06:21:57.634Z,0.00
2023-01-11T06:22:57.864Z,0.00
2023-01-11T06:23:57.942Z,0.00
2023-01-11T06:24:58.053Z,0.00
2023-01-11T06:25:58.185Z,0.00
2023-01-11T06:26:58.307Z,0.00
2023-01-11T06:27:58.454Z,0.00
2023-01-11T06:28:58.514Z,0.00
2023-01-11T06:29:58.681Z,0.00
2023-01-11T06:30:58.927Z,0.00
2023-01-11T06:31:58.933Z,0.00
2023-01-11T06:32:58.995Z,0.00
2023-01-11T06:33:59.203Z,0.00
2023-01-11T06:34:59.241Z,0.00
2023-01-11T06:35:59.388Z,0.00
2023-01-11T06:36:59.492Z,0.00
2023-01-11T06:37:59.571Z,0.00
2023-01-11T06:38:59.737Z,0.00
2023-01-11T06:39:59.896Z,0.00
2023-01-11T06:41:00.005Z,0.00
2023-01-11T06:42:00.151Z,0.00
2023-01-11T06:43:00.811Z,0.00
2023-01-11T06:44:00.324Z,0.00
2023-01-11T06:45:00.487Z,0.00
2023-01-11T06:46:00.604Z,0.00
2023-01-11T06:47:00.715Z,0.00
2023-01-11T06:48:00.802Z,0.00
2023-01-11T06:49:00.997Z,0.00
2023-01-11T06:50:01.081Z,0.00
2023-01-11T06:51:01.161Z,0.00
2023-01-11T06:52:01.340Z,0.00
2023-01-11T06:53:01.443Z,0.00
2023-01-11T06:54:01.596Z,0.00
2023-01-11T06:55:01.668Z,0.00
2023-01-11T06:56:01.850Z,0.00
2023-01-11T06:57:02.011Z,0.00
2023-01-11T06:58:02.060Z,0.00
2023-01-11T06:59:02.152Z,0.00
2023-01-11T07:00:02.338Z,0.00
2023-01-11T07:01:03.511Z,0.00
2023-01-11T07:02:02.552Z,0.00
2023-01-11T07:03:02.620Z,0.00
2023-01-11T07:04:02.862Z,0.00
2023-01-11T07:05:02.948Z,0.00
2023-01-11T07:06:03.007Z,0.00
2023-01-11T07:07:03.133Z,0.00
2023-01-11T07:08:03.284Z,0.00
2023-01-11T07:09:03.380Z,0.00
2023-01-11T07:10:03.553Z,0.00
2023-01-11T07:11:03.634Z,0.00
2023-01-11T07:12:03.741Z,0.00
2023-01-11T07:13:03.875Z,0.00
2023-01-11T07:14:03.987Z,0.00
2023-01-11T07:15:04.222Z,0.00
2023-01-11T07:16:04.270Z,0.00
2023-01-11T07:17:04.399Z,0.00
2023-01-11T07:18:04.617Z,0.00
2023-01-11T07:19:04.640Z,0.00
2023-01-11T07:20:04.720Z,0.00
2023-01-11T07:21:04.794Z,0.00
2023-01-11T07:22:04.928Z,0.00
2023-01-11T07:23:05.029Z,0.00
2023-01-11T07:24:05.241Z,0.00
2023-01-11T07:25:05.302Z,0.00
2023-01-11T07:26:05.457Z,0.00
2023-01-11T07:27:05.614Z,0.00
2023-01-11T07:28:05.678Z,0.00
2023-01-11T07:29:05.758Z,0.00
2023-01-11T07:30:06.972Z,0.00
2023-01-11T07:31:06.004Z,0.00
2023-01-11T07:32:07.194Z,0.00
2023-01-11T07:33:06.237Z,0.00
2023-01-11T07:34:06.409Z,0.00
2023-01-11T07:35:06.441Z,0.00
2023-01-11T07:36:06.638Z,0.00
2023-01-11T07:37:06.646Z,0.00
2023-01-11T07:38:06.752Z,0.00
2023-01-11T07:39:06.884Z,0.00
2023-01-11T07:40:07.107Z,0.00
2023-01-11T07:41:07.249Z,0.00
2023-01-11T07:42:07.321Z,0.00
2023-01-11T07:43:07.358Z,0.00
2023-01-11T07:44:07.532Z,5.62
2023-01-11T07:45:07.569Z,5.62
2023-01-11T07:46:07.784Z,5.62
2023-01-11T07:47:07.866Z,5.62
2023-01-11T07:48:07.968Z,5.62
2023-01-11T07:49:08.071Z,5.62
2023-01-11T07:50:08.215Z,5.62
2023-01-11T07:51:08.318Z,5.62
2023-01-11T07:52:08.353Z,5.62
2023-01-11T07:53:08.496Z,5.62
2023-01-11T07:54:08.595Z,5.62
2023-01-11T07:55:08.764Z,5.62
2023-01-11T07:56:08.888Z,5.62
2023-01-11T07:57:08.965Z,5.62
2023-01-11T07:58:09.151Z,5.62
2023-01-11T07:59:09.242Z,11.25
2023-01-11T08:00:09.353Z,11.25
2023-01-11T08:01:09.513Z,11.25
2023-01-11T08:02:09.587Z,11.25
2023-01-11T08:03:09.877Z,11.25
2023-01-11T08:04:09.804Z,11.25
2023-01-11T08:05:09.888Z,16.88
2023-01-11T08:06:10.026Z,16.88
2023-01-11T08:07:10.111Z,22.50
2023-01-11T08:08:10.272Z,28.12
2023-01-11T08:09:10.362Z,33.75
2023-01-11T08:10:10.493Z,39.38
2023-01-11T08:11:10.622Z,45.00
2023-01-11T08:12:10.701Z,50.62
2023-01-11T08:13:10.818Z,50.62
2023-01-11T08:14:10.947Z,56.25
2023-01-11T08:15:11.089Z,61.88
2023-01-11T08:16:11.369Z,61.88
2023-01-11T08:17:11.313Z,50.62
2023-01-11T08:18:11.500Z,56.25
2023-01-11T08:19:11.628Z,61.88
2023-01-11T08:20:11.713Z,67.50
2023-01-11T08:21:14.104Z,67.50
2023-01-11T08:22:11.947Z,67.50
2023-01-11T08:23:12.049Z,73.12
2023-01-11T08:24:12.227Z,73.12
2023-01-11T08:25:12.268Z,67.50
2023-01-11T08:26:12.431Z,67.50
2023-01-11T08:27:13.521Z,67.50
2023-01-11T08:28:12.645Z,73.12
2023-01-11T08:29:12.803Z,78.75
2023-01-11T08:30:12.957Z,78.75
2023-01-11T08:31:13.123Z,78.75
2023-01-11T08:32:13.186Z,78.75
2023-01-11T08:33:13.373Z,73.12
2023-01-11T08:34:13.385Z,73.12
2023-01-11T08:35:13.554Z,73.12
2023-01-11T08:36:13.705Z,73.12
2023-01-11T08:37:13.822Z,67.50
2023-01-11T08:38:13.855Z,56.25
2023-01-11T08:39:13.956Z,50.62
2023-01-11T08:40:14.052Z,56.25
2023-01-11T08:41:14.223Z,56.25
2023-01-11T08:42:14.313Z,50.62
2023-01-11T08:43:14.443Z,56.25
2023-01-11T08:44:14.997Z,61.88
2023-01-11T08:45:14.662Z,61.88
2023-01-11T08:46:14.799Z,67.50
2023-01-11T08:47:14.901Z,67.50
2023-01-11T08:48:15.018Z,67.50
2023-01-11T08:49:15.130Z,67.50
2023-01-11T08:50:15.370Z,61.88
2023-01-11T08:51:15.339Z,45.00
2023-01-11T08:52:15.477Z,50.62
2023-01-11T08:53:15.589Z,61.88
2023-01-11T08:54:15.685Z,61.88
2023-01-11T08:55:15.789Z,45.00
2023-01-11T08:56:15.916Z,50.62
2023-01-11T08:57:16.000Z,50.62
2023-01-11T08:58:16.171Z,39.38
2023-01-11T08:59:16.233Z,45.00
2023-01-11T09:00:16.386Z,56.25
2023-01-11T09:01:16.573Z,61.88
2023-01-11T09:02:16.637Z,61.88
2023-01-11T09:03:16.726Z,61.88
2023-01-11T09:04:24.745Z,61.88
2023-01-11T09:05:18.477Z,61.88
2023-01-11T09:06:17.101Z,56.25
2023-01-11T09:07:17.198Z,61.88
2023-01-11T09:08:17.343Z,67.50
2023-01-11T09:09:17.420Z,67.50
2023-01-11T09:10:17.580Z,67.50
2023-01-11T09:11:17.640Z,61.88
2023-01-11T09:12:17.743Z,45.00
2023-01-11T09:13:17.866Z,45.00
2023-01-11T09:14:18.011Z,45.00
2023-01-11T09:15:18.135Z,28.12
2023-01-11T09:16:18.291Z,28.12
2023-01-11T09:17:18.396Z,45.00
2023-01-11T09:18:18.471Z,61.88
2023-01-11T09:19:18.588Z,61.88
2023-01-11T09:20:18.785Z,73.12
2023-01-11T09:21:18.881Z,78.75
2023-01-11T09:22:18.962Z,84.38
2023-01-11T09:23:19.122Z,95.62
2023-01-11T09:24:19.349Z,84.38
2023-01-11T09:25:19.519Z,95.62
2023-01-11T09:26:19.489Z,84.38
2023-01-11T09:27:19.754Z,95.62
2023-01-11T09:28:19.765Z,101.25
2023-01-11T09:29:19.919Z,106.88
2023-01-11T09:30:19.984Z,101.25
2023-01-11T09:31:20.142Z,106.88
2023-01-11T09:32:20.178Z,106.88
2023-01-11T09:33:20.274Z,112.50
2023-01-11T09:34:20.441Z,112.50
2023-01-11T09:35:20.584Z,118.12
2023-01-11T09:36:20.671Z,123.75
2023-01-11T09:37:20.753Z,140.62
2023-01-11T09:38:20.865Z,140.62
2023-01-11T09:39:20.998Z,151.88
2023-01-11T09:40:21.237Z,185.62
2023-01-11T09:41:21.239Z,213.75
2023-01-11T09:42:21.350Z,225.00
2023-01-11T09:43:21.493Z,219.38
2023-01-11T09:44:21.706Z,213.75
2023-01-11T09:45:21.789Z,219.38
2023-01-11T09:46:21.892Z,225.00
2023-01-11T09:47:22.005Z,219.38
2023-01-11T09:48:22.113Z,213.75
2023-01-11T09:49:22.191Z,202.50
2023-01-11T09:50:22.335Z,168.75
2023-01-11T09:51:22.424Z,151.88
2023-01-11T09:52:22.529Z,168.75
2023-01-11T09:53:22.668Z,146.25
2023-01-11T09:54:22.739Z,101.25
2023-01-11T09:55:22.887Z,67.50
2023-01-11T09:56:22.950Z,78.75
2023-01-11T09:57:23.104Z,73.12
2023-01-11T09:58:23.177Z,95.62
2023-01-11T09:59:23.293Z,78.75
2023-01-11T10:00:23.437Z,90.00
2023-01-11T10:01:23.501Z,118.12
2023-01-11T10:02:23.590Z,151.88
2023-01-11T10:03:23.738Z,174.38
2023-01-11T10:04:23.971Z,185.62
2023-01-11T10:05:24.121Z,208.12
2023-01-11T10:06:24.067Z,241.88
2023-01-11T10:07:24.237Z,270.00
2023-01-11T10:18:22.525Z,208.12
2023-01-11T10:18:25.680Z,230.62
2023-01-11T10:18:39.150Z,208.12
2023-01-11T10:18:40.054Z,219.38
2023-01-11T10:18:50.044Z,191.25
2023-01-11T10:19:39.874Z,168.75
2023-01-11T10:20:26.792Z,157.50
2023-01-11T10:21:25.799Z,151.88
2023-01-11T10:22:25.902Z,140.62
2023-01-11T10:23:25.993Z,129.38
2023-01-11T10:24:26.723Z,140.62
2023-01-11T10:25:26.222Z,140.62
2023-01-11T10:26:26.319Z,129.38
2023-01-11T10:27:26.449Z,123.75
2023-01-11T10:28:26.526Z,174.38
2023-01-11T10:29:26.848Z,196.88
2023-01-11T10:30:26.796Z,185.62
2023-01-11T10:31:26.937Z,185.62
2023-01-11T10:32:26.956Z,129.38
2023-01-11T10:33:27.131Z,151.88
2023-01-11T10:34:27.275Z,247.50
2023-01-11T10:35:27.348Z,326.25
2023-01-11T10:36:29.344Z,365.62
2023-01-11T10:37:27.559Z,281.25
2023-01-11T10:38:27.616Z,219.38
2023-01-11T10:39:28.251Z,180.00
2023-01-11T10:40:27.848Z,180.00
2023-01-11T10:41:27.946Z,163.12
2023-01-11T10:42:28.077Z,151.88
2023-01-11T10:43:28.745Z,151.88
2023-01-11T10:44:28.395Z,140.62
2023-01-11T10:45:28.673Z,157.50
2023-01-11T10:46:28.523Z,174.38
2023-01-11T10:47:28.636Z,129.38
2023-01-11T10:48:28.725Z,157.50
2023-01-11T10:49:28.846Z,140.62
2023-01-11T10:50:29.000Z,135.00
2023-01-11T10:51:29.074Z,174.38
2023-01-11T10:52:29.254Z,180.00
2023-01-11T10:53:29.300Z,185.62
2023-01-11T10:54:29.416Z,151.88
2023-01-11T10:55:29.520Z,174.38
2023-01-11T10:56:29.615Z,236.25
2023-01-11T10:57:29.766Z,180.00
2023-01-11T10:58:29.843Z,253.12
2023-01-11T10:59:29.953Z,354.38
2023-01-11T11:00:30.053Z,382.50
2023-01-11T11:01:30.157Z,303.75
2023-01-11T11:02:30.258Z,219.38
2023-01-11T11:03:30.359Z,236.25
2023-01-11T11:04:30.569Z,399.38
2023-01-11T11:05:30.617Z,331.88
2023-01-11T11:06:30.700Z,258.75
2023-01-11T11:07:30.819Z,174.38
2023-01-11T11:08:30.933Z,270.00
2023-01-11T11:09:31.039Z,219.38
2023-01-11T11:10:31.159Z,253.12
2023-01-11T11:11:31.289Z,315.00
2023-01-11T11:12:31.371Z,309.38
2023-01-11T11:13:31.457Z,320.62
2023-01-11T11:14:31.619Z,309.38
2023-01-11T11:15:31.678Z,191.25
2023-01-11T11:16:31.856Z,191.25
2023-01-11T11:17:31.890Z,343.12
2023-01-11T11:18:32.013Z,315.00
2023-01-11T11:19:32.108Z,208.12
2023-01-11T11:20:32.248Z,270.00
2023-01-11T11:21:32.361Z,202.50
2023-01-11T11:22:32.490Z,202.50
2023-01-11T11:23:32.622Z,191.25
2023-01-11T11:24:32.837Z,230.62
2023-01-11T11:25:32.804Z,213.75
2023-01-11T11:26:32.963Z,196.88
2023-01-11T11:27:33.015Z,140.62
2023-01-11T11:28:33.114Z,191.25
2023-01-11T11:29:33.218Z,196.88
2023-01-11T11:30:33.364Z,236.25
2023-01-11T11:31:33.503Z,225.00
2023-01-11T11:32:36.380Z,202.50
2023-01-11T11:33:33.762Z,208.12
2023-01-11T11:34:33.816Z,286.88
2023-01-11T11:35:33.968Z,326.25
2023-01-11T11:36:34.108Z,326.25
2023-01-11T11:37:34.200Z,360.00
2023-01-11T11:38:34.277Z,371.25
2023-01-11T11:39:34.382Z,253.12
2023-01-11T11:40:34.561Z,213.75
2023-01-11T11:41:34.600Z,247.50
2023-01-11T11:42:34.702Z,253.12
2023-01-11T11:43:34.817Z,225.00
2023-01-11T11:44:34.983Z,275.62
2023-01-11T11:45:35.115Z,180.00
2023-01-11T11:46:35.149Z,157.50
2023-01-11T11:47:35.252Z,146.25
2023-01-11T11:48:35.475Z,151.88
2023-01-11T11:49:35.503Z,157.50
2023-01-11T11:50:45.267Z,202.50
2023-01-11T11:51:36.758Z,292.50
2023-01-11T11:52:35.840Z,208.12
2023-01-11T11:53:35.945Z,196.88
2023-01-11T11:54:36.117Z,292.50
2023-01-11T11:55:36.148Z,315.00
2023-01-11T11:56:36.287Z,236.25
2023-01-11T11:57:36.432Z,196.88
2023-01-11T11:58:36.478Z,196.88
2023-01-11T11:59:36.625Z,185.62
2023-01-11T12:00:36.736Z,185.62
2023-01-11T12:01:36.855Z,140.62
2023-01-11T12:02:36.944Z,140.62
2023-01-11T12:03:37.070Z,112.50
2023-01-11T12:04:37.238Z,118.12
2023-01-11T12:05:37.350Z,106.88
2023-01-11T12:06:37.437Z,106.88
2023-01-11T12:07:49.681Z,106.88
2023-01-11T12:08:38.646Z,118.12
2023-01-11T12:09:37.783Z,118.12
2023-01-11T12:10:37.838Z,174.38
2023-01-11T12:11:37.968Z,180.00
2023-01-11T12:12:38.091Z,219.38
2023-01-11T12:13:38.249Z,258.75
2023-01-11T12:14:38.324Z,253.12
2023-01-11T12:15:38.525Z,208.12
2023-01-11T12:16:38.537Z,196.88
2023-01-11T12:17:38.592Z,270.00
2023-01-11T12:18:38.722Z,286.88
2023-01-11T12:19:38.853Z,405.00
2023-01-11T12:20:38.961Z,348.75
2023-01-11T12:21:39.012Z,399.38
2023-01-11T12:22:39.137Z,376.88
2023-01-11T12:23:39.221Z,331.88
2023-01-11T12:24:39.549Z,483.75
2023-01-11T12:25:39.502Z,382.50
2023-01-11T12:26:39.729Z,281.25
2023-01-11T12:27:39.700Z,354.38
2023-01-11T12:28:39.819Z,365.62
2023-01-11T12:29:39.994Z,180.00
2023-01-11T12:30:40.117Z,281.25
2023-01-11T12:31:40.205Z,281.25
2023-01-11T12:32:40.352Z,354.38
2023-01-11T12:33:40.469Z,247.50
2023-01-11T12:34:40.671Z,230.62
2023-01-11T12:35:40.777Z,196.88
2023-01-11T12:36:40.896Z,258.75
2023-01-11T12:37:41.012Z,365.62
2023-01-11T12:38:41.144Z,202.50
2023-01-11T12:39:41.398Z,123.75
2023-01-11T12:40:41.413Z,118.12
2023-01-11T12:41:41.509Z,129.38
2023-01-11T12:42:41.618Z,202.50
2023-01-11T12:43:41.735Z,275.62
2023-01-11T12:44:41.885Z,315.00
2023-01-11T12:45:42.055Z,225.00
2023-01-11T12:46:42.111Z,168.75
2023-01-11T12:47:42.722Z,151.88
2023-01-11T12:48:42.262Z,140.62
2023-01-11T12:49:42.367Z,191.25
2023-01-11T12:50:42.474Z,191.25
2023-01-11T12:51:42.577Z,202.50
2023-01-11T12:52:42.694Z,191.25
2023-01-11T12:53:42.812Z,129.38
2023-01-11T12:54:42.904Z,129.38
2023-01-11T12:55:43.048Z,129.38
2023-01-11T12:56:43.143Z,129.38
2023-01-11T12:57:43.234Z,123.75
2023-01-11T12:58:43.365Z,123.75
2023-01-11T12:59:43.462Z,146.25
2023-01-11T13:00:43.685Z,129.38
2023-01-11T13:01:43.729Z,140.62
2023-01-11T13:02:43.927Z,168.75
2023-01-11T13:03:43.949Z,123.75
2023-01-11T13:04:44.124Z,135.00
2023-01-11T13:05:44.176Z,247.50
2023-01-11T13:06:44.427Z,191.25
2023-01-11T13:07:44.456Z,163.12
2023-01-11T13:08:44.507Z,168.75